Time;durP1;ratioP1;P1;durP2;ratioP2;P2;SDS_P1;SDS_P2;PMS_P1;PMS_P2;Temp;Humidity;BMP_temperature;BMP_pressure;BME280_temperature;BME280_humidity;BME280_pressure;Samples;Min_cycle;Max_cycle;Signal;HPM_P1;HPM_P2
2022/09/25 00:00:56;;;;;;;6.35;1.40;;;;;;;;;;5045275;28;20358;-36
2022/09/25 00:03:24;;;;;;;8.80;1.40;;;5.90;99.90;;;;;;5045300;28;20079;-36
2022/09/25 00:05:50;;;;;;;8.07;1.80;;;6.50;99.90;;;;;;5045025;28;20056;-36
2022/09/25 00:08:18;;;;;;;9.43;1.70;;;6.10;99.90;;;;;;5044694;28;20119;-35
2022/09/25 00:10:49;;;;;;;6.03;1.30;;;5.70;99.90;;;;;;5044722;28;20060;-36
2022/09/25 00:13:18;;;;;;;7.93;1.45;;;5.90;99.90;;;;;;5045308;28;20084;-36
2022/09/25 00:15:55;;;;;;;6.05;1.38;;;6.20;99.90;;;;;;5043478;28;20494;-36
2022/09/25 00:21:08;;;;;;;4.63;1.33;;;6.10;99.90;;;;;;5045072;28;20132;-36
2022/09/25 00:23:34;;;;;;;7.53;1.85;;;6.10;99.90;;;;;;5044710;28;20134;-36
2022/09/25 00:26:01;;;;;;;8.02;1.67;;;6.20;99.90;;;;;;5045503;28;20083;-36
2022/09/25 00:28:28;;;;;;;9.70;1.92;;;6.10;99.90;;;;;;5045439;28;20505;-36
2022/09/25 00:30:55;;;;;;;8.13;2.10;;;6.20;99.90;;;;;;5045327;28;20175;-36
2022/09/25 00:33:21;;;;;;;7.25;1.38;;;6.30;99.90;;;;;;5045152;28;20499;-36
2022/09/25 00:35:47;;;;;;;7.93;1.40;;;6.20;99.90;;;;;;5044675;28;20037;-36
2022/09/25 00:38:13;;;;;;;8.93;1.50;;;;;;;;;;5044701;28;20071;-36
2022/09/25 00:40:40;;;;;;;2.75;0.85;;;;;;;;;;5044546;28;20044;-36
2022/09/25 00:43:36;;;;;;;9.98;1.30;;;;;;;;;;5045055;28;20045;-36
2022/09/25 00:46:03;;;;;;;5.60;1.20;;;;;;;;;;5048468;28;20497;-36
2022/09/25 00:48:31;;;;;;;9.80;1.80;;;;;;;;;;5049453;28;20399;-35
2022/09/25 00:50:59;;;;;;;5.63;1.63;;;;;;;;;;5048950;28;20491;-36
2022/09/25 00:53:37;;;;;;;8.05;2.00;;;;;;;;;;5049105;28;20041;-35
2022/09/25 00:56:06;;;;;;;8.43;1.92;;;;;;;;;;5048957;28;20431;-36
2022/09/25 00:58:34;;;;;;;10.68;2.00;;;;;;;;;;5049275;28;20058;-36
2022/09/25 01:01:01;;;;;;;7.75;2.00;;;;;;;;;;5048999;28;20513;-36
2022/09/25 01:03:32;;;;;;;8.05;2.17;;;;;;;;;;5048503;28;20366;-36
2022/09/25 01:06:03;;;;;;;6.18;2.25;;;;;;;;;;5048067;28;20044;-35
2022/09/25 01:08:30;;;;;;;7.28;1.60;;;5.50;99.90;;;;;;5048522;28;20048;-35
2022/09/25 01:10:56;;;;;;;12.80;1.95;;;5.80;99.90;;;;;;5047755;28;20080;-36
2022/09/25 01:13:22;;;;;;;5.65;1.92;;;5.80;99.90;;;;;;5048336;28;20580;-36
2022/09/25 01:15:51;;;;;;;8.35;1.60;;;5.70;99.90;;;;;;5048286;28;20051;-36
2022/09/25 01:18:35;;;;;;;7.55;1.30;;;;;;;;;;5048277;28;20384;-36
2022/09/25 01:21:10;;;;;;;5.63;1.40;;;;;;;;;;5048062;28;20429;-36
2022/09/25 01:23:48;;;;;;;9.18;1.50;;;;;;;;;;5048474;28;20491;-36
2022/09/25 01:26:17;;;;;;;11.77;1.80;;;;;;;;;;5048773;28;20236;-36
2022/09/25 01:29:09;;;;;;;11.85;2.60;;;;;;;;;;5048443;28;20045;-36
2022/09/25 01:31:38;;;;;;;16.38;2.13;;;;;;;;;;5048704;28;20053;-36
2022/09/25 01:34:39;;;;;;;13.00;2.60;;;;;;;;;;5048010;28;20088;-36
2022/09/25 01:37:18;;;;;;;9.15;2.42;;;4.00;99.90;;;;;;5043510;28;20110;-36
2022/09/25 01:40:21;;;;;;;6.35;2.05;;;5.40;99.90;;;;;;5047793;28;20454;-36
2022/09/25 01:43:15;;;;;;;4.90;1.80;;;5.50;99.90;;;;;;5046308;28;20060;-36
2022/09/25 01:46:13;;;;;;;9.35;2.20;;;5.50;99.90;;;;;;5043543;28;20096;-36
2022/09/25 01:48:43;;;;;;;5.45;1.38;;;5.40;99.90;;;;;;5047392;28;20135;-36
2022/09/25 01:51:33;;;;;;;24.60;3.63;;;5.60;99.90;;;;;;5048302;28;20049;-36
2022/09/25 01:54:04;;;;;;;7.53;2.30;;;;;;;;;;5048213;28;20048;-36
2022/09/25 01:56:34;;;;;;;7.40;2.25;;;;;;;;;;5046452;28;20293;-36
2022/09/25 01:59:09;;;;;;;12.23;2.10;;;4.90;99.90;;;;;;5047930;28;20045;-36
2022/09/25 02:01:40;;;;;;;7.72;1.83;;;5.70;99.90;;;;;;5048101;28;20041;-35
2022/09/25 02:04:41;;;;;;;6.35;1.92;;;5.40;99.90;;;;;;5046096;28;20056;-36
2022/09/25 02:07:10;;;;;;;10.15;2.15;;;5.40;99.90;;;;;;5047500;28;20049;-36
2022/09/25 02:09:38;;;;;;;7.88;2.17;;;5.60;99.90;;;;;;5047319;28;20057;-36
2022/09/25 02:12:09;;;;;;;6.10;2.80;;;5.60;99.90;;;;;;5047264;28;20138;-35
2022/09/25 02:14:50;;;;;;;8.23;2.17;;;5.50;99.90;;;;;;5047037;28;20055;-36
2022/09/25 02:20:33;;;;;;;11.60;2.47;;;5.40;99.90;;;;;;5047170;28;20429;-36
2022/09/25 02:23:33;;;;;;;8.27;2.08;;;5.40;99.90;;;;;;5046944;28;20167;-36
2022/09/25 02:26:10;;;;;;;8.18;2.20;;;5.40;99.90;;;;;;5046937;28;20120;-36
2022/09/25 02:28:36;;;;;;;17.92;3.47;;;5.50;99.90;;;;;;5047315;28;20114;-35
2022/09/25 02:31:08;;;;;;;12.88;2.90;;;6.00;99.90;;;;;;5046999;28;20394;-36
2022/09/25 02:33:34;;;;;;;14.40;2.50;;;5.60;99.90;;;;;;5047042;28;20060;-35
2022/09/25 02:36:02;;;;;;;7.45;2.35;;;6.10;99.90;;;;;;5047014;28;20372;-36
2022/09/25 02:38:28;;;;;;;13.02;2.10;;;5.30;99.90;;;;;;5046622;28;20402;-35
2022/09/25 02:41:03;;;;;;;7.63;2.50;;;5.60;99.90;;;;;;5046969;28;20134;-36
2022/09/25 02:43:44;;;;;;;8.13;2.42;;;5.40;99.90;;;;;;5047057;28;20394;-35
2022/09/25 02:46:37;;;;;;;13.13;3.60;;;5.40;99.90;;;;;;5046725;28;20840;-36
2022/09/25 02:49:23;;;;;;;13.95;2.42;;;5.40;99.90;;;;;;5046690;28;20052;-36
2022/09/25 02:52:18;;;;;;;10.52;1.98;;;5.40;99.90;;;;;;5046481;28;20051;-35
2022/09/25 02:54:57;;;;;;;8.43;1.50;;;5.30;99.90;;;;;;5046628;28;20045;-36
2022/09/25 02:57:52;;;;;;;9.75;2.05;;;5.30;99.90;;;;;;5046326;28;20040;-36
2022/09/25 03:00:21;;;;;;;7.28;1.70;;;5.30;99.90;;;;;;5046461;28;20490;-36
2022/09/25 03:02:48;;;;;;;9.93;1.70;;;5.30;99.90;;;;;;5046541;28;20045;-36
2022/09/25 03:05:15;;;;;;;14.35;2.55;;;5.50;99.90;;;;;;5046480;28;20089;-36
2022/09/25 03:10:26;;;;;;;5.90;2.13;;;5.20;99.90;;;;;;5046397;28;20064;-36
2022/09/25 03:12:52;;;;;;;6.70;2.20;;;5.50;99.90;;;;;;5046487;28;20080;-35
2022/09/25 03:15:22;;;;;;;7.18;1.90;;;5.30;99.90;;;;;;5046183;28;20451;-35
2022/09/25 03:17:49;;;;;;;12.70;2.05;;;5.50;99.90;;;;;;5045970;28;20052;-36
2022/09/25 03:20:15;;;;;;;7.50;1.98;;;5.30;99.90;;;;;;5045528;28;20054;-36
2022/09/25 03:22:41;;;;;;;4.45;1.55;;;5.60;99.90;;;;;;5045838;28;20718;-36
2022/09/25 03:25:07;;;;;;;6.70;1.70;;;5.30;99.90;;;;;;5045667;28;20525;-36
2022/09/25 03:27:32;;;;;;;8.73;2.20;;;5.80;99.90;;;;;;5046018;28;20041;-36
2022/09/25 03:29:58;;;;;;;11.82;2.33;;;5.30;99.90;;;;;;5045625;28;20059;-35
2022/09/25 03:32:24;;;;;;;7.07;1.65;;;5.40;99.90;;;;;;5045846;28;20372;-35
2022/09/25 03:34:50;;;;;;;12.05;3.15;;;5.30;99.90;;;;;;5046015;28;20052;-36
2022/09/25 03:37:15;;;;;;;12.55;2.40;;;5.30;99.90;;;;;;5045447;28;20406;-36
2022/09/25 03:39:41;;;;;;;7.88;2.55;;;5.30;99.90;;;;;;5045504;28;20125;-35
2022/09/25 03:42:07;;;;;;;12.32;2.15;;;5.30;99.90;;;;;;5045414;28;20199;-36
2022/09/25 03:44:32;;;;;;;5.80;2.03;;;5.30;99.90;;;;;;5045415;28;20527;-36
2022/09/25 03:46:58;;;;;;;9.38;2.40;;;5.20;99.90;;;;;;5045221;28;20036;-35
2022/09/25 03:49:23;;;;;;;10.75;2.78;;;5.30;99.90;;;;;;5045665;28;20411;-35
2022/09/25 03:51:49;;;;;;;8.93;2.63;;;5.70;99.90;;;;;;5045619;28;20510;-35
2022/09/25 03:54:15;;;;;;;9.85;2.50;;;5.20;99.90;;;;;;5045216;28;20087;-36
2022/09/25 03:56:40;;;;;;;8.93;2.60;;;5.00;99.90;;;;;;5045060;28;20044;-36
2022/09/25 03:59:06;;;;;;;7.40;1.88;;;5.10;99.90;;;;;;5044818;28;20045;-36
2022/09/25 04:01:32;;;;;;;7.07;2.10;;;5.00;99.90;;;;;;5044943;28;20069;-36
2022/09/25 04:03:59;;;;;;;7.75;1.88;;;5.30;99.90;;;;;;5045061;28;20549;-35
2022/09/25 04:06:25;;;;;;;7.95;2.00;;;5.10;99.90;;;;;;5045481;28;20076;-36
2022/09/25 04:08:52;;;;;;;9.27;2.40;;;5.10;99.90;;;;;;5045708;28;20080;-36
2022/09/25 04:11:19;;;;;;;11.68;3.67;;;5.00;99.90;;;;;;5045364;28;20059;-36
2022/09/25 04:13:45;;;;;;;11.32;3.17;;;5.10;99.90;;;;;;5045971;28;20049;-35
2022/09/25 04:16:13;;;;;;;7.00;2.25;;;5.10;99.90;;;;;;5045416;28;20390;-36
2022/09/25 04:18:39;;;;;;;6.50;2.08;;;5.30;99.90;;;;;;5045126;28;20048;-35
2022/09/25 04:21:07;;;;;;;9.98;2.67;;;5.10;99.90;;;;;;5043166;28;20052;-36
2022/09/25 04:23:33;;;;;;;10.35;2.25;;;5.10;99.90;;;;;;5045515;28;20530;-36
2022/09/25 04:25:58;;;;;;;8.32;2.55;;;5.00;99.90;;;;;;5045019;28;20072;-35
2022/09/25 04:28:24;;;;;;;6.53;1.48;;;5.00;99.90;;;;;;5045102;28;20478;-36
2022/09/25 04:30:50;;;;;;;12.98;2.53;;;5.00;99.90;;;;;;5045129;28;20514;-36
2022/09/25 04:36:01;;;;;;;6.75;1.92;;;5.00;99.90;;;;;;5044865;28;20051;-36
2022/09/25 04:38:30;;;;;;;9.32;2.55;;;4.80;99.90;;;;;;5044674;28;20048;-35
2022/09/25 04:40:56;;;;;;;9.40;2.42;;;5.00;99.90;;;;;;5044688;28;20518;-36
2022/09/25 04:43:22;;;;;;;7.40;2.70;;;4.90;99.90;;;;;;5045058;28;20040;-36
2022/09/25 04:45:49;;;;;;;7.78;2.80;;;5.10;99.90;;;;;;5043426;28;20049;-36
2022/09/25 04:48:15;;;;;;;8.45;2.70;;;4.80;99.90;;;;;;5044796;28;20149;-36
2022/09/25 04:50:47;;;;;;;9.05;2.88;;;5.50;99.90;;;;;;5045126;28;20055;-35
2022/09/25 04:53:12;;;;;;;13.60;2.88;;;5.10;99.90;;;;;;5044571;28;20071;-35
2022/09/25 04:55:38;;;;;;;9.43;3.30;;;5.00;99.90;;;;;;5044928;28;20116;-36
2022/09/25 04:58:04;;;;;;;13.68;3.45;;;5.10;99.90;;;;;;5045115;28;20045;-36
2022/09/25 05:00:31;;;;;;;11.43;2.70;;;5.00;99.90;;;;;;5045034;28;20410;-35
2022/09/25 05:02:57;;;;;;;9.57;3.53;;;5.20;99.90;;;;;;5045188;28;20075;-35
2022/09/25 05:05:27;;;;;;;15.88;3.55;;;5.30;99.90;;;;;;5044911;28;20080;-36
2022/09/25 05:07:58;;;;;;;13.55;3.58;;;5.10;99.90;;;;;;5044917;28;20149;-36
2022/09/25 05:10:29;;;;;;;12.40;3.33;;;5.30;99.90;;;;;;5044501;28;20060;-36
2022/09/25 05:13:00;;;;;;;13.57;3.33;;;5.20;99.90;;;;;;5045009;28;20402;-35
2022/09/25 05:15:27;;;;;;;8.85;2.70;;;5.30;99.90;;;;;;5044633;28;20773;-35
2022/09/25 05:18:06;;;;;;;9.02;3.25;;;5.30;99.90;;;;;;5044715;28;20077;-36
2022/09/25 05:20:34;;;;;;;9.63;3.05;;;5.20;99.90;;;;;;5044783;28;20147;-35
2022/09/25 05:23:03;;;;;;;9.15;2.72;;;5.30;99.90;;;;;;5044600;28;20041;-36
2022/09/25 05:25:29;;;;;;;8.10;2.58;;;5.20;99.90;;;;;;5044581;28;20045;-36
2022/09/25 05:27:58;;;;;;;9.57;2.72;;;5.20;99.90;;;;;;5044935;28;20045;-36
2022/09/25 05:30:24;;;;;;;5.20;1.88;;;5.10;99.90;;;;;;5044885;28;20045;-36
2022/09/25 05:32:51;;;;;;;8.35;2.00;;;5.00;99.90;;;;;;5048450;28;20394;-36
2022/09/25 05:35:18;;;;;;;8.85;2.10;;;5.30;99.90;;;;;;5048340;28;20512;-36
2022/09/25 05:37:44;;;;;;;5.43;1.88;;;5.10;99.90;;;;;;5048884;28;20395;-35
2022/09/25 05:40:10;;;;;;;6.90;2.35;;;5.20;99.90;;;;;;5048748;28;20037;-35
2022/09/25 05:42:36;;;;;;;7.63;2.45;;;5.10;99.90;;;;;;5048583;28;20052;-35
2022/09/25 05:45:01;;;;;;;13.10;3.33;;;5.30;99.90;;;;;;5048492;28;20049;-35
2022/09/25 05:47:27;;;;;;;7.45;3.03;;;5.30;99.90;;;;;;5047969;28;20045;-35
2022/09/25 05:49:53;;;;;;;17.17;4.55;;;5.40;99.90;;;;;;5048091;28;20098;-35
2022/09/25 05:52:18;;;;;;;9.35;3.33;;;5.40;99.90;;;;;;5047761;28;20040;-36
2022/09/25 05:54:44;;;;;;;16.10;3.53;;;5.60;99.90;;;;;;5048123;28;20482;-35
2022/09/25 05:57:10;;;;;;;11.77;3.13;;;5.80;99.90;;;;;;5047569;28;20190;-36
2022/09/25 05:59:35;;;;;;;13.80;4.07;;;6.50;99.90;;;;;;5047457;28;20666;-36
2022/09/25 06:02:01;;;;;;;9.00;3.55;;;6.00;99.90;;;;;;5047521;28;20045;-36
2022/09/25 06:04:26;;;;;;;14.23;3.90;;;6.40;99.90;;;;;;5047419;28;20483;-35
2022/09/25 06:06:52;;;;;;;9.20;3.38;;;6.20;99.90;;;;;;5047436;28;20044;-36
2022/09/25 06:09:18;;;;;;;7.80;2.88;;;5.90;99.90;;;;;;5047198;28;20053;-35
2022/09/25 06:11:46;;;;;;;8.73;3.15;;;6.10;99.90;;;;;;5047213;28;20085;-36
2022/09/25 06:14:15;;;;;;;15.43;3.67;;;6.10;99.90;;;;;;5047658;28;20415;-36
2022/09/25 06:16:41;;;;;;;14.82;3.85;;;6.40;99.90;;;;;;5047469;28;20487;-36
2022/09/25 06:19:07;;;;;;;6.13;3.00;;;6.20;99.90;;;;;;5047147;28;20044;-36
2022/09/25 06:21:33;;;;;;;14.00;3.70;;;6.10;99.90;;;;;;5047473;28;20045;-36
2022/09/25 06:23:59;;;;;;;16.45;4.35;;;6.10;99.90;;;;;;5047973;28;20378;-36
2022/09/25 06:26:24;;;;;;;12.52;5.90;;;6.20;99.90;;;;;;5047416;28;20036;-36
2022/09/25 06:28:50;;;;;;;13.65;4.53;;;6.40;99.90;;;;;;5047569;28;20049;-36
2022/09/25 06:31:16;;;;;;;11.60;3.58;;;6.40;99.90;;;;;;5047438;28;20502;-36
2022/09/25 06:33:42;;;;;;;13.60;3.30;;;6.50;99.90;;;;;;5047404;28;20045;-36
2022/09/25 06:36:08;;;;;;;11.02;3.67;;;6.90;99.90;;;;;;5045680;28;20111;-36
2022/09/25 06:38:34;;;;;;;15.07;4.32;;;7.00;99.90;;;;;;5046845;28;20045;-36
2022/09/25 06:41:00;;;;;;;16.38;4.22;;;6.70;99.90;;;;;;5046211;28;20164;-36
2022/09/25 06:43:26;;;;;;;10.50;3.65;;;7.00;99.90;;;;;;5046036;28;20365;-36
2022/09/25 06:45:52;;;;;;;9.68;3.20;;;6.80;99.90;;;;;;5046990;28;20047;-36
2022/09/25 06:48:20;;;;;;;12.85;3.50;;;7.20;99.90;;;;;;5046229;28;20494;-35
2022/09/25 06:50:51;;;;;;;10.32;3.33;;;7.10;99.90;;;;;;5047224;28;20529;-36
2022/09/25 06:53:19;;;;;;;12.75;4.07;;;7.00;99.90;;;;;;5046746;28;20495;-35
2022/09/25 06:55:45;;;;;;;9.30;3.25;;;7.00;99.90;;;;;;5046938;28;20106;-36
2022/09/25 06:58:18;;;;;;;13.55;3.88;;;7.40;99.90;;;;;;5046735;28;20128;-36
2022/09/25 07:00:52;;;;;;;8.23;3.00;;;7.80;99.90;;;;;;5046836;28;20041;-36
2022/09/25 07:06:04;;;;;;;6.65;3.35;;;7.50;99.90;;;;;;5046780;28;20125;-36
2022/09/25 07:08:30;;;;;;;13.40;4.15;;;;;;;;;;5046381;28;20080;-36
2022/09/25 07:11:00;;;;;;;9.52;2.72;;;;;;;;;;5045888;28;20061;-36
2022/09/25 07:13:32;;;;;;;8.93;2.45;;;7.90;99.90;;;;;;5046465;28;20088;-36
2022/09/25 07:16:15;;;;;;;6.83;4.00;;;8.30;99.90;;;;;;5046432;28;20049;-36
2022/09/25 07:18:42;;;;;;;8.88;2.50;;;9.00;99.90;;;;;;5046175;28;20048;-36
2022/09/25 07:21:12;;;;;;;9.52;3.10;;;8.80;99.90;;;;;;5046404;28;20660;-36
2022/09/25 07:23:38;;;;;;;9.80;2.72;;;9.10;99.90;;;;;;5046412;28;20403;-36
2022/09/25 07:26:08;;;;;;;9.25;3.53;;;9.00;99.90;;;;;;5046298;28;20079;-36
2022/09/25 07:28:35;;;;;;;13.13;2.97;;;9.40;99.90;;;;;;5045797;28;20049;-36
2022/09/25 07:31:21;;;;;;;8.13;3.33;;;9.60;99.90;;;;;;5046635;28;20118;-36
2022/09/25 07:33:47;;;;;;;10.88;2.50;;;10.20;99.90;;;;;;5046508;28;20053;-36
2022/09/25 07:36:15;;;;;;;10.05;2.88;;;10.30;99.90;;;;;;5046132;28;20053;-35
2022/09/25 07:38:41;;;;;;;8.63;2.75;;;10.30;99.90;;;;;;5045782;28;20053;-36
2022/09/25 07:41:10;;;;;;;8.18;2.50;;;11.00;99.90;;;;;;5046087;28;20041;-36
2022/09/25 07:43:38;;;;;;;14.93;2.50;;;10.90;99.90;;;;;;5045555;28;20106;-36
2022/09/25 07:46:05;;;;;;;9.02;3.00;;;10.70;99.90;;;;;;5045825;28;20040;-36
2022/09/25 07:48:31;;;;;;;9.07;2.20;;;10.80;99.90;;;;;;5045989;28;20457;-36
2022/09/25 07:51:01;;;;;;;6.63;2.35;;;11.30;99.90;;;;;;5046095;28;20124;-36
2022/09/25 07:53:27;;;;;;;7.43;2.00;;;10.70;99.90;;;;;;5045992;28;20045;-36
2022/09/25 07:55:59;;;;;;;6.78;2.30;;;11.20;99.90;;;;;;5046238;28;20116;-36
2022/09/25 07:58:25;;;;;;;10.10;2.25;;;10.80;99.90;;;;;;5045521;28;20041;-36
2022/09/25 08:00:53;;;;;;;10.05;1.95;;;11.20;99.90;;;;;;5046019;28;20383;-36
2022/09/25 08:03:19;;;;;;;7.07;2.40;;;10.90;99.90;;;;;;5045575;28;20111;-36
2022/09/25 08:05:44;;;;;;;8.32;1.83;;;11.20;99.90;;;;;;5045506;28;20428;-36
2022/09/25 08:08:10;;;;;;;6.05;1.77;;;11.50;99.90;;;;;;5045931;28;20044;-36
2022/09/25 08:10:36;;;;;;;6.60;1.58;;;11.90;99.90;;;;;;5045282;28;20061;-36
2022/09/25 08:13:01;;;;;;;8.95;1.88;;;11.60;99.90;;;;;;5046215;28;20037;-36
2022/09/25 08:15:27;;;;;;;8.65;2.28;;;11.70;99.90;;;;;;5045881;28;20051;-36
2022/09/25 08:17:53;;;;;;;4.75;1.58;;;11.70;99.90;;;;;;5045605;28;20123;-36
2022/09/25 08:20:19;;;;;;;8.00;1.67;;;11.80;99.90;;;;;;5045410;28;20056;-36
2022/09/25 08:22:46;;;;;;;7.03;1.42;;;11.60;99.90;;;;;;5045078;28;20483;-36
2022/09/25 08:25:12;;;;;;;9.90;1.33;;;12.10;99.90;;;;;;5045158;28;20394;-37
2022/09/25 08:27:39;;;;;;;10.90;2.17;;;11.70;99.90;;;;;;5044462;28;20047;-36
2022/09/25 08:30:10;;;;;;;8.23;1.70;;;11.90;99.90;;;;;;5044891;28;20463;-36
2022/09/25 08:32:36;;;;;;;12.32;2.72;;;12.00;99.90;;;;;;5044720;28;20071;-36
2022/09/25 08:35:03;;;;;;;10.38;1.60;;;12.20;99.90;;;;;;5044935;28;20552;-36
2022/09/25 08:37:30;;;;;;;11.90;1.63;;;12.50;99.90;;;;;;5044776;28;20276;-36
2022/09/25 08:40:00;;;;;;;6.75;1.70;;;13.10;99.90;;;;;;5045314;28;20514;-37
2022/09/25 08:42:34;;;;;;;8.77;1.10;;;13.10;99.90;;;;;;5045252;28;20049;-36
2022/09/25 08:50:39;;;;;;;10.27;1.85;;;13.70;99.90;;;;;;5044134;28;20087;-36
2022/09/25 08:53:09;;;;;;;4.47;0.70;;;14.20;99.90;;;;;;5044851;28;20073;-36
2022/09/25 08:58:33;;;;;;;6.03;0.52;;;14.30;99.90;;;;;;5044686;28;20052;-36
2022/09/25 09:01:05;;;;;;;6.68;0.30;;;14.60;99.90;;;;;;5044555;28;20525;-36
2022/09/25 09:03:31;;;;;;;;;;;14.70;99.90;;;;;;5045067;28;20037;-36
2022/09/25 09:06:04;;;;;;;4.43;0.40;;;14.90;99.90;;;;;;5046429;28;19920;-36
2022/09/25 09:08:35;;;;;;;4.07;0.47;;;15.10;99.90;;;;;;5048949;28;20090;-37
2022/09/25 09:11:07;;;;;;;11.75;0.73;;;15.20;99.90;;;;;;5048486;28;20186;-36
2022/09/25 09:13:36;;;;;;;;;;;15.40;99.90;;;;;;5048898;28;20045;-37
2022/09/25 09:16:05;;;;;;;10.07;1.33;;;;;;;;;;5048410;28;19921;-36
2022/09/25 09:18:38;;;;;;;6.45;0.77;;;16.40;99.90;;;;;;5048748;28;20037;-36
2022/09/25 09:21:15;;;;;;;6.00;0.35;;;16.60;99.90;;;;;;5048714;28;20048;-36
2022/09/25 09:23:50;;;;;;;6.95;0.40;;;16.50;99.90;;;;;;5048107;28;20094;-36
2022/09/25 09:26:24;;;;;;;5.30;0.20;;;16.40;99.90;;;;;;5048196;28;20041;-36
2022/09/25 09:29:01;;;;;;;4.68;0.25;;;16.20;99.90;;;;;;5047953;28;20041;-36
2022/09/25 09:31:36;;;;;;;6.03;0.45;;;16.00;99.90;;;;;;5048532;28;20055;-36
2022/09/25 09:34:20;;;;;;;3.80;0.30;;;15.80;99.90;;;;;;5048879;28;20076;-36
2022/09/25 09:37:05;;;;;;;4.10;0.63;;;15.90;99.90;;;;;;5049024;28;20052;-36
2022/09/25 09:40:00;;;;;;;10.32;1.15;;;15.90;99.90;;;;;;5048461;28;20131;-36
2022/09/25 09:42:42;;;;;;;6.68;0.30;;;16.00;99.90;;;;;;5048304;28;20060;-37
2022/09/25 09:45:11;;;;;;;10.85;1.33;;;16.10;99.90;;;;;;5047059;28;20045;-37
2022/09/25 09:48:05;;;;;;;5.85;0.68;;;16.30;99.90;;;;;;5048514;28;20120;-36
2022/09/25 09:50:42;;;;;;;5.43;0.65;;;16.30;99.90;;;;;;5048179;28;20041;-36
2022/09/25 09:53:26;;;;;;;9.63;0.70;;;16.10;99.90;;;;;;5047990;28;20437;-36
2022/09/25 09:56:00;;;;;;;8.07;0.80;;;15.70;99.90;;;;;;5047992;28;20045;-37
2022/09/25 09:58:29;;;;;;;2.72;0.40;;;15.10;99.90;;;;;;5048337;28;20048;-36
2022/09/25 10:00:55;;;;;;;2.15;0.13;;;14.60;99.90;;;;;;5048077;28;20044;-37
2022/09/25 10:03:27;;;;;;;4.35;0.30;;;14.20;99.90;;;;;;5048530;28;20372;-36
2022/09/25 10:06:00;;;;;;;3.03;0.28;;;13.90;99.90;;;;;;5047909;28;20045;-37
2022/09/25 10:08:26;;;;;;;4.20;0.30;;;13.70;99.90;;;;;;5046848;28;20091;-36
2022/09/25 10:10:53;;;;;;;3.42;0.50;;;13.50;99.90;;;;;;5046244;28;20345;-36
2022/09/25 10:13:32;;;;;;;2.22;0.30;;;13.40;99.90;;;;;;5046258;28;20864;-37
2022/09/25 10:16:03;;;;;;;4.60;0.10;;;13.30;99.90;;;;;;5046241;28;20083;-36
2022/09/25 10:18:36;;;;;;;1.73;0.20;;;13.30;99.90;;;;;;5045161;28;20037;-36
2022/09/25 10:21:11;;;;;;;4.97;0.10;;;13.20;99.90;;;;;;5046058;28;20132;-36
2022/09/25 10:23:47;;;;;;;1.13;0.10;;;13.30;99.90;;;;;;5046150;28;20041;-37
2022/09/25 10:26:36;;;;;;;2.25;0.20;;;13.40;99.90;;;;;;5046265;28;20578;-36
2022/09/25 10:29:22;;;;;;;1.48;0.10;;;13.50;99.90;;;;;;5045691;28;20429;-36
2022/09/25 10:31:57;;;;;;;3.25;0.20;;;13.60;99.90;;;;;;5045576;28;20049;-37
2022/09/25 10:34:25;;;;;;;4.57;0.10;;;13.80;99.90;;;;;;5044521;28;20045;-36
2022/09/25 10:36:52;;;;;;;1.35;0.25;;;14.00;99.90;;;;;;5047199;28;20051;-36
2022/09/25 10:39:31;;;;;;;1.52;0.22;;;14.10;99.90;;;;;;5047354;28;20052;-36
2022/09/25 10:41:58;;;;;;;3.95;0.30;;;14.20;99.90;;;;;;5047372;28;20498;-36
2022/09/25 10:44:36;;;;;;;4.72;0.30;;;14.20;99.90;;;;;;5047489;28;20118;-36
2022/09/25 10:50:22;;;;;;;3.75;0.25;;;14.10;99.90;;;;;;5046830;28;20118;-36
2022/09/25 10:52:49;;;;;;;3.03;0.32;;;14.10;99.90;;;;;;5047059;28;20107;-36
2022/09/25 10:55:31;;;;;;;6.10;0.40;;;14.10;99.90;;;;;;5046843;28;20037;-36
2022/09/25 10:58:11;;;;;;;1.70;0.30;;;14.10;99.90;;;;;;5046904;28;20037;-36
2022/09/25 11:01:00;;;;;;;7.32;0.70;;;14.10;99.90;;;;;;5046530;28;20831;-36
2022/09/25 11:03:33;;;;;;;3.60;0.30;;;14.20;99.90;;;;;;5047069;28;20044;-36
2022/09/25 11:06:07;;;;;;;2.42;1.13;;;14.30;99.90;;;;;;5046837;28;20040;-36
2022/09/25 11:08:37;;;;;;;4.20;0.32;;;14.40;99.90;;;;;;5047092;28;20041;-36
2022/09/25 11:11:06;;;;;;;6.40;0.52;;;14.40;99.90;;;;;;5046059;28;20750;-36
2022/09/25 11:13:37;;;;;;;3.20;0.30;;;14.50;99.90;;;;;;5046475;28;20665;-36
2022/09/25 11:16:09;;;;;;;2.65;0.20;;;14.50;99.90;;;;;;5046723;28;20040;-36
2022/09/25 11:18:50;;;;;;;4.75;0.30;;;14.70;99.90;;;;;;5046019;28;20092;-36
2022/09/25 11:21:39;;;;;;;2.22;0.25;;;14.70;99.90;;;;;;5043939;28;20461;-37
2022/09/25 11:24:26;;;;;;;4.68;0.30;;;14.90;99.90;;;;;;5024797;28;20067;-37
2022/09/25 11:27:06;;;;;;;2.72;0.50;;;15.10;99.90;;;;;;5045632;28;20052;-36
2022/09/25 11:29:45;;;;;;;3.95;0.20;;;15.20;99.90;;;;;;5045648;28;20059;-37
2022/09/25 11:32:54;;;;;;;0.63;0.20;;;15.30;99.90;;;;;;5043078;28;20056;-37
2022/09/25 11:35:53;;;;;;;1.75;0.20;;;15.40;99.90;;;;;;5044795;28;20814;-37
2022/09/25 11:41:39;;;;;;;1.27;0.17;;;15.60;99.90;;;;;;5045241;28;20041;-37
2022/09/25 11:44:30;;;;;;;3.30;0.38;;;15.70;99.90;;;;;;5044858;28;20041;-37
2022/09/25 11:47:23;;;;;;;2.28;0.20;;;15.70;99.90;;;;;;5044712;28;20042;-37
2022/09/25 11:49:53;;;;;;;2.38;0.20;;;15.70;99.90;;;;;;5045475;28;20601;-37
2022/09/25 11:52:39;;;;;;;3.08;0.20;;;15.70;99.90;;;;;;5045631;28;20170;-37
2022/09/25 11:55:17;;;;;;;6.07;0.65;;;15.60;99.90;;;;;;5044798;28;20501;-37
2022/09/25 11:58:22;;;;;;;3.50;0.30;;;15.70;99.90;;;;;;5045453;28;20152;-37
2022/09/25 12:00:58;;;;;;;2.53;0.30;;;15.90;99.90;;;;;;5045257;28;20132;-37
2022/09/25 12:03:36;;;;;;;1.83;0.25;;;16.10;99.90;;;;;;5045776;28;20148;-37
2022/09/25 12:06:31;;;;;;;2.80;0.40;;;16.30;99.90;;;;;;5045632;28;20124;-37
2022/09/25 12:09:31;;;;;;;8.35;1.25;;;16.40;99.90;;;;;;5045492;28;20130;-37
2022/09/25 12:12:40;;;;;;;1.67;0.40;;;16.40;99.90;;;;;;5037781;28;20438;-37
2022/09/25 12:15:37;;;;;;;2.78;0.43;;;16.40;99.90;;;;;;5045632;28;20052;-37
2022/09/25 12:18:16;;;;;;;1.65;0.15;;;16.50;99.90;;;;;;5045559;28;20045;-37
2022/09/25 12:20:55;;;;;;;2.03;0.30;;;16.50;99.90;;;;;;5045738;28;20087;-37
2022/09/25 12:23:33;;;;;;;3.47;0.20;;;16.40;99.90;;;;;;5044020;28;20400;-37
2022/09/25 12:26:20;;;;;;;2.45;0.40;;;16.30;99.90;;;;;;5045376;28;20124;-37
2022/09/25 12:29:05;;;;;;;3.65;0.60;;;16.20;99.90;;;;;;5045739;28;20094;-37
2022/09/25 12:32:03;;;;;;;4.30;0.50;;;16.20;99.90;;;;;;5044167;28;20052;-37
2022/09/25 12:34:31;;;;;;;2.50;0.88;;;16.20;99.90;;;;;;5045484;28;20637;-37
2022/09/25 12:37:25;;;;;;;3.05;0.65;;;16.10;99.90;;;;;;5045683;28;20052;-36
2022/09/25 12:39:56;;;;;;;4.85;1.33;;;16.00;99.90;;;;;;5045107;28;20072;-37
2022/09/25 12:42:33;;;;;;;3.80;0.60;;;15.90;99.90;;;;;;5045254;28;20033;-37
2022/09/25 12:45:08;;;;;;;3.90;0.73;;;15.80;99.90;;;;;;5045035;28;20041;-37
2022/09/25 12:47:44;;;;;;;3.85;0.75;;;15.60;99.90;;;;;;5045480;28;20068;-37
2022/09/25 12:50:17;;;;;;;3.53;0.22;;;15.30;99.90;;;;;;5045122;28;20037;-37
2022/09/25 12:53:12;;;;;;;1.15;0.20;;;15.10;99.90;;;;;;5044738;28;20045;-37
2022/09/25 12:55:46;;;;;;;5.60;0.20;;;14.90;99.90;;;;;;5044759;28;20044;-37
2022/09/25 12:58:24;;;;;;;4.13;0.20;;;14.70;99.90;;;;;;5044838;28;20056;-37
2022/09/25 13:01:00;;;;;;;3.97;1.10;;;14.60;99.90;;;;;;5044797;28;20406;-37
2022/09/25 13:03:49;;;;;;;3.22;0.45;;;14.50;99.90;;;;;;5045209;28;20506;-37
2022/09/25 13:06:38;;;;;;;4.30;0.73;;;14.40;99.90;;;;;;5044959;28;20037;-36
2022/09/25 13:09:12;;;;;;;1.33;0.15;;;14.40;99.90;;;;;;5044569;28;20483;-37
2022/09/25 13:11:54;;;;;;;2.55;0.20;;;16.20;99.90;;;;;;5043939;28;20055;-37
2022/09/25 13:14:33;;;;;;;3.05;0.30;;;14.60;99.90;;;;;;5044045;28;20053;-36
2022/09/25 13:17:00;;;;;;;2.35;0.20;;;14.80;99.90;;;;;;5044555;28;20051;-37
2022/09/25 13:19:32;;;;;;;3.47;0.17;;;15.00;99.90;;;;;;5044681;28;20364;-37
2022/09/25 13:22:05;;;;;;;0.70;0.15;;;15.10;99.90;;;;;;5044654;28;20040;-37
2022/09/25 13:25:02;;;;;;;1.40;0.10;;;15.20;99.90;;;;;;5043804;28;20041;-37
2022/09/25 13:27:38;;;;;;;3.28;0.95;;;15.40;99.90;;;;;;5029072;28;20083;-37
2022/09/25 13:30:04;;;;;;;2.35;0.30;;;15.60;99.90;;;;;;5044432;28;20045;-37
2022/09/25 13:32:34;;;;;;;1.40;0.10;;;15.80;99.90;;;;;;5044571;28;20280;-37
2022/09/25 13:35:06;;;;;;;3.97;1.23;;;15.80;99.90;;;;;;5044186;28;20495;-37
2022/09/25 13:37:37;;;;;;;4.40;0.20;;;15.70;99.90;;;;;;5044480;28;20080;-37
2022/09/25 13:43:21;;;;;;;4.97;0.70;;;15.40;99.90;;;;;;5044051;28;20048;-37
2022/09/25 13:45:49;;;;;;;2.05;0.10;;;15.20;99.90;;;;;;5043842;28;20033;-37
2022/09/25 13:48:29;;;;;;;3.80;0.20;;;15.00;99.90;;;;;;5043228;28;20487;-37
2022/09/25 13:51:17;;;;;;;2.22;0.20;;;14.90;99.90;;;;;;5042802;28;20483;-37
2022/09/25 13:54:22;;;;;;;2.88;0.17;;;14.70;99.90;;;;;;5047797;28;20124;-36
2022/09/25 13:56:49;;;;;;;6.07;0.82;;;14.70;99.90;;;;;;5046883;28;20037;-37
2022/09/25 13:59:15;;;;;;;1.42;0.20;;;14.60;99.90;;;;;;5046160;28;20045;-37